createdAt,value
2023-05-03T00:03:33.415Z,101429.75
2023-05-03T00:07:02.460Z,101433.25
2023-05-03T00:10:34.694Z,101433.94
2023-05-03T00:14:02.462Z,101441.02
2023-05-03T00:17:33.472Z,101437.95
2023-05-03T00:21:01.027Z,101442.78
2023-05-03T00:24:28.679Z,101443.81
2023-05-03T00:27:56.699Z,101445.50
2023-05-03T00:31:23.592Z,101443.40
2023-05-03T00:34:59.912Z,101445.09
2023-05-03T00:38:27.828Z,101453.67
2023-05-03T00:47:15.568Z,101452.86
2023-05-03T00:50:42.873Z,101453.34
2023-05-03T00:54:11.420Z,101457.42
2023-05-03T00:57:45.392Z,101462.88
2023-05-03T01:01:13.880Z,101463.13
2023-05-03T01:04:45.533Z,101465.66
2023-05-03T01:08:22.529Z,101461.13
2023-05-03T01:11:56.439Z,101463.30
2023-05-03T01:15:35.372Z,101463.02
2023-05-03T01:19:06.566Z,101463.83
2023-05-03T01:22:45.660Z,101467.67
2023-05-03T01:26:26.273Z,101460.99
2023-05-03T01:29:55.888Z,101464.34
2023-05-03T01:33:34.542Z,101469.20
2023-05-03T01:37:06.749Z,101469.21
2023-05-03T01:40:37.866Z,101467.48
2023-05-03T01:44:07.116Z,101464.52
2023-05-03T01:47:41.443Z,101466.08
2023-05-03T01:51:08.474Z,101466.10
2023-05-03T01:54:35.847Z,101467.17
2023-05-03T01:58:04.780Z,101470.31
2023-05-03T02:01:31.935Z,101474.16
2023-05-03T02:04:58.960Z,101474.41
2023-05-03T02:08:25.701Z,101470.38
2023-05-03T02:11:53.712Z,101466.13
2023-05-03T02:15:21.949Z,101465.02
2023-05-03T02:18:48.737Z,101470.26
2023-05-03T02:22:15.668Z,101467.94
2023-05-03T02:25:42.450Z,101471.58
2023-05-03T02:29:10.234Z,101470.07
2023-05-03T02:32:37.114Z,101471.49
2023-05-03T02:36:05.089Z,101471.55
2023-05-03T02:39:34.059Z,101471.10
2023-05-03T02:43:02.095Z,101473.23
2023-05-03T02:46:29.261Z,101478.09
2023-05-03T02:49:56.597Z,101477.11
2023-05-03T02:53:24.528Z,101481.96
2023-05-03T02:56:53.388Z,101484.58
2023-05-03T03:00:21.902Z,101480.46
2023-05-03T03:03:49.312Z,101484.63
2023-05-03T03:07:16.369Z,101485.86
2023-05-03T03:10:43.332Z,101486.58
2023-05-03T03:14:11.453Z,101490.02
2023-05-03T03:17:39.669Z,101487.63
2023-05-03T03:21:07.804Z,101491.74
2023-05-03T03:24:35.819Z,101495.84
2023-05-03T03:28:04.251Z,101500.28
2023-05-03T03:31:32.236Z,101498.69
2023-05-03T03:34:59.683Z,101500.73
2023-05-03T03:38:28.682Z,101504.48
2023-05-03T03:42:03.230Z,101503.45
2023-05-03T03:45:31.880Z,101507.73
2023-05-03T03:48:59.509Z,101510.30
2023-05-03T03:52:28.890Z,101516.34
2023-05-03T03:55:57.873Z,101518.75
2023-05-03T03:59:26.697Z,101523.58
2023-05-03T04:02:54.737Z,101524.81
2023-05-03T04:06:21.856Z,101528.93
2023-05-03T04:09:50.072Z,101530.63
2023-05-03T04:13:18.123Z,101533.20
2023-05-03T04:16:46.689Z,101536.28
2023-05-03T04:20:15.594Z,101541.77
2023-05-03T04:23:44.837Z,101549.29
2023-05-03T04:27:15.076Z,101552.16
2023-05-03T04:30:43.739Z,101553.30
2023-05-03T04:34:15.187Z,101554.96
2023-05-03T04:37:44.273Z,101554.55
2023-05-03T04:41:14.819Z,101559.80
2023-05-03T04:44:44.748Z,101563.66
2023-05-03T04:48:12.760Z,101567.34
2023-05-03T04:51:40.827Z,101566.32
2023-05-03T04:55:09.525Z,101569.77
2023-05-03T04:58:38.163Z,101570.30
2023-05-03T05:02:05.561Z,101571.61
2023-05-03T05:05:32.329Z,101576.73
2023-05-03T05:09:00.197Z,101579.21
2023-05-03T05:12:27.002Z,101582.45
2023-05-03T05:15:53.916Z,101585.71
2023-05-03T05:19:21.043Z,101589.15
2023-05-03T05:22:48.266Z,101590.70
2023-05-03T05:26:15.671Z,101595.46
2023-05-03T05:29:42.377Z,101598.96
2023-05-03T05:33:09.823Z,101597.78
2023-05-03T05:36:38.181Z,101599.53
2023-05-03T05:40:08.058Z,101601.48
2023-05-03T05:43:42.318Z,101604.94
2023-05-03T05:47:09.931Z,101609.64
2023-05-03T05:50:37.416Z,101615.46
2023-05-03T05:54:08.562Z,101616.31
2023-05-03T05:57:35.614Z,101613.86
2023-05-03T06:01:03.949Z,101614.52
2023-05-03T06:04:33.661Z,101613.11
2023-05-03T06:08:05.614Z,101620.52
2023-05-03T06:11:34.114Z,101626.35
2023-05-03T06:15:03.144Z,101629.46
2023-05-03T06:18:35.503Z,101629.56
2023-05-03T06:22:02.968Z,101634.52
2023-05-03T06:25:33.953Z,101636.76
2023-05-03T06:29:01.142Z,101638.80
2023-05-03T06:32:28.159Z,101638.39
2023-05-03T06:35:56.991Z,101640.91
2023-05-03T06:39:24.124Z,101638.92
2023-05-03T06:42:50.894Z,101640.23
2023-05-03T06:46:41.526Z,101644.80
2023-05-03T06:50:09.974Z,101643.15
2023-05-03T06:53:37.076Z,101642.20
2023-05-03T06:57:04.589Z,101644.20
2023-05-03T07:00:31.448Z,101645.36
2023-05-03T07:03:57.922Z,101648.06
2023-05-03T07:07:24.761Z,101651.39
2023-05-03T07:10:51.438Z,101650.91
2023-05-03T07:14:18.780Z,101654.63
2023-05-03T07:17:45.392Z,101652.05
2023-05-03T07:21:12.246Z,101649.71
2023-05-03T07:24:39.013Z,101651.81
2023-05-03T07:28:06.697Z,101651.71
2023-05-03T07:31:33.943Z,101650.92
2023-05-03T07:35:08.997Z,101648.95
2023-05-03T07:38:36.638Z,101650.44
2023-05-03T07:42:07.947Z,101654.17
2023-05-03T07:45:34.909Z,101653.11
2023-05-03T07:49:04.483Z,101653.23
2023-05-03T07:52:34.522Z,101651.27
2023-05-03T07:56:01.272Z,101653.63
2023-05-03T07:59:29.688Z,101658.21
2023-05-03T08:02:57.041Z,101660.70
2023-05-03T08:06:26.495Z,101651.92
2023-05-03T08:09:53.995Z,101652.31
2023-05-03T08:13:22.853Z,101653.50
2023-05-03T08:16:50.574Z,101654.17
2023-05-03T08:20:17.845Z,101650.02
2023-05-03T08:23:45.500Z,101653.46
2023-05-03T08:27:12.763Z,101651.59
2023-05-03T08:30:42.563Z,101652.92
2023-05-03T08:34:13.988Z,101650.83
2023-05-03T08:37:44.973Z,101653.08
2023-05-03T08:41:23.229Z,101653.88
2023-05-03T08:44:51.980Z,101663.84
2023-05-03T08:48:19.167Z,101660.66
2023-05-03T08:51:48.607Z,101658.77
2023-05-03T08:55:17.386Z,101661.56
2023-05-03T08:58:44.152Z,101662.80
2023-05-03T09:02:14.033Z,101666.93
2023-05-03T09:05:44.537Z,101665.90
2023-05-03T09:09:17.005Z,101672.09
2023-05-03T09:12:45.966Z,101675.02
2023-05-03T09:16:13.333Z,101666.33
2023-05-03T09:19:53.370Z,101669.95
2023-05-03T09:23:31.770Z,101669.16
2023-05-03T09:27:00.187Z,101672.36
2023-05-03T09:30:31.641Z,101669.79
2023-05-03T09:34:00.412Z,101661.23
2023-05-03T09:37:39.834Z,101659.96
2023-05-03T09:41:09.294Z,101669.14
2023-05-03T09:44:49.080Z,101667.41
2023-05-03T09:48:18.203Z,101665.88
2023-05-03T09:51:45.674Z,101660.17
2023-05-03T09:55:22.722Z,101660.67
2023-05-03T09:58:50.195Z,101658.04
2023-05-03T10:02:18.412Z,101663.27
2023-05-03T10:05:51.624Z,101662.39
2023-05-03T10:09:21.972Z,101654.15
2023-05-03T10:12:54.060Z,101658.67
2023-05-03T10:16:27.351Z,101657.69
2023-05-03T10:20:03.707Z,101653.20
2023-05-03T10:23:31.146Z,101647.40
2023-05-03T10:26:59.807Z,101647.60
2023-05-03T10:30:42.390Z,101652.67
2023-05-03T10:34:23.251Z,101655.34
